Wetterdaten: aktuell Samstag, 19.01.2019 04:50
Datum Zeit Temp. A. Feuchte A. Luftdruck Regen Wind Richtung Richtung Taupunkt Windchill Windben
19.01.2019 04:50 -7,4 C 90 % 1020,3 hPa 0,0 l/m 1,6 km/h (1 Bft) N-NO 22 -8,8 C -7,4 C 1,6 km/h (1 Bft)
19.01.2019 03:50 -7,7 C 90 % 1020,3 hPa 0,0 l/m 0,0 km/h (0 Bft) N-NO 22 -9,0 C -7,7 C 1,6 km/h (1 Bft)
19.01.2019 02:50 -6,8 C 90 % 1020,4 hPa 0,0 l/m 0,0 km/h (0 Bft) N 0 -8,2 C -6,8 C 0,0 km/h (0 Bft)
19.01.2019 01:50 -6,8 C 90 % 1020,8 hPa 0,0 l/m 0,0 km/h (0 Bft) N 0 -8,2 C -6,8 C 0,0 km/h (0 Bft)
19.01.2019 00:50 -7,7 C 90 % 1021,1 hPa 0,0 l/m 1,6 km/h (1 Bft) N 360 -9,0 C -7,7 C 3,2 km/h (1 Bft)
18.01.2019 23:50 -6,6 C 90 % 1021,9 hPa 0,0 l/m 1,6 km/h (1 Bft) N 360 -8,0 C -6,6 C 3,2 km/h (1 Bft)
18.01.2019 22:50 -6,7 C 90 % 1022,2 hPa 0,0 l/m 0,0 km/h (0 Bft) N 0 -8,1 C -6,7 C 0,0 km/h (0 Bft)
18.01.2019 21:50 -6,4 C 90 % 1022,3 hPa 0,0 l/m 0,0 km/h (0 Bft) N 360 -7,8 C -6,4 C 1,6 km/h (1 Bft)
18.01.2019 20:50 -6,3 C 89 % 1022,5 hPa 0,0 l/m 0,0 km/h (0 Bft) N 0 -7,8 C -6,3 C 0,0 km/h (0 Bft)
18.01.2019 19:50 -5,4 C 88 % 1022,6 hPa 0,0 l/m 0,0 km/h (0 Bft) N 0 -7,1 C -5,4 C 0,0 km/h (0 Bft)
18.01.2019 18:50 -5,2 C 87 % 1022,5 hPa 0,0 l/m 0,0 km/h (0 Bft) N 360 -7,0 C -5,2 C 1,6 km/h (1 Bft)
18.01.2019 17:50 -3,9 C 84 % 1022,3 hPa 0,0 l/m 0,0 km/h (0 Bft) N 0 -6,2 C -3,9 C 0,0 km/h (0 Bft)
18.01.2019 16:50 -3,7 C 80 % 1022,2 hPa 0,0 l/m 1,6 km/h (1 Bft) N 360 -6,6 C -3,7 C 3,2 km/h (1 Bft)
18.01.2019 15:50 0,3 C 71 % 1022,3 hPa 0,0 l/m 0,0 km/h (0 Bft) N 360 -4,3 C 0,3 C 1,6 km/h (1 Bft)
18.01.2019 14:50 0,8 C 72 % 1021,9 hPa 0,2 l/m 1,6 km/h (1 Bft) W-NW 292 -3,7 C 0,8 C 3,2 km/h (1 Bft)
18.01.2019 13:50 0,1 C 77 % 1022,0 hPa 0,2 l/m 6,4 km/h (2 Bft) NW 315 -3,4 C 0,1 C 11,3 km/h (2 Bft)
18.01.2019 12:50 0,8 C 69 % 1022,0 hPa 0,0 l/m 19,3 km/h (3 Bft) SW 225 -4,2 C -8,3 C 22,5 km/h (4 Bft)
18.01.2019 11:50 0,7 C 71 % 1022,2 hPa 0,0 l/m 8,0 km/h (2 Bft) W-SW 247 -3,9 C -0,9 C 11,3 km/h (2 Bft)
18.01.2019 10:50 -0,1 C 75 % 1022,2 hPa 0,0 l/m 14,5 km/h (3 Bft) SW 225 -4,0 C -6,8 C 17,7 km/h (3 Bft)
18.01.2019 09:50 -0,7 C 76 % 1022,1 hPa 0,0 l/m 12,9 km/h (3 Bft) W-SW 247 -4,4 C -6,5 C 16,1 km/h (3 Bft)
18.01.2019 08:50 -0,7 C 78 % 1021,2 hPa 0,0 l/m 16,1 km/h (3 Bft) W-SW 247 -4,0 C -8,5 C 19,3 km/h (3 Bft)
18.01.2019 07:50 -0,4 C 77 % 1020,3 hPa 0,0 l/m 14,5 km/h (3 Bft) W-SW 247 -3,9 C -7,2 C 17,7 km/h (3 Bft)
18.01.2019 06:50 -0,4 C 78 % 1019,2 hPa 0,0 l/m 19,3 km/h (3 Bft) W-SW 247 -3,8 C -9,8 C 25,7 km/h (4 Bft)
18.01.2019 05:50 -0,4 C 80 % 1018,2 hPa 0,0 l/m 11,3 km/h (2 Bft) W-SW 247 -3,4 C -4,9 C 16,1 km/h (3 Bft)
18.01.2019 05:00 -0,2 C 82 % 1017,3 hPa 0,0 l/m 12,9 km/h (3 Bft) W 270 -2,9 C -5,9 C 17,7 km/h (3 Bft)
_ Min-Zeit 04:27 13:14 05:00 - 14:43 - - 04:27 06:25 14:43
Minimum _ -8,6 C 66 % 1017,3 hPa - 0,0 km/h (0 Bft) - - -10,1 C -12,5 C 0,0 km/h (0 Bft)
_ Max-Zeit 13:13 21:47 21:33 13:17 06:25 - - 14:22 13:13 06:15
Maximum _ 1,3 C 91 % 1023,0 hPa 0,2 l/m 25,7 km/h
SW (4 Bft)
- - -2,8 C 1,2 C 33,8 km/h
S-SW (5 Bft)
Durchschnitt _ -3,0 C 82 % 1021,1 hPa #0,4 l/m 6,0 km/h (2 Bft) W-SW - -5,8 C -5,4 C 8,2 km/h (2 Bft)